createdAt,value
2019-04-10T19:38:31.862Z,57.80
2019-04-10T19:41:00.553Z,58.00
2019-04-10T19:43:30.581Z,58.00
2019-04-10T19:46:00.586Z,58.10
2019-04-10T19:48:29.142Z,59.00
2019-04-10T19:50:57.933Z,58.20
2019-04-10T19:53:27.009Z,58.50
2019-04-10T19:55:56.055Z,58.60
2019-04-10T19:58:24.636Z,58.70
2019-04-10T20:00:53.381Z,58.70
2019-04-10T20:03:21.925Z,59.20
2019-04-10T20:05:51.305Z,59.00
2019-04-10T20:08:19.997Z,59.30
2019-04-10T20:10:49.837Z,59.80
2019-04-10T20:13:18.715Z,60.30
2019-04-10T20:15:47.274Z,60.60
2019-04-10T20:18:16.734Z,61.10
2019-04-10T20:20:45.753Z,61.30
2019-04-10T20:23:14.312Z,61.50
2019-04-10T20:25:42.936Z,62.30
2019-04-10T20:28:12.266Z,62.50
2019-04-10T20:30:40.962Z,62.10
2019-04-10T20:33:10.431Z,62.10
2019-04-10T20:35:40.340Z,61.90
2019-04-10T20:38:09.345Z,62.30
2019-04-10T20:40:38.135Z,62.10
2019-04-10T20:43:06.936Z,62.50
2019-04-10T20:45:35.785Z,62.50
2019-04-10T20:48:04.689Z,62.60
2019-04-10T20:50:34.206Z,62.90
2019-04-10T20:53:03.953Z,63.80
2019-04-10T20:55:33.484Z,63.60
2019-04-10T20:58:05.765Z,63.60
2019-04-10T21:00:38.616Z,63.60
2019-04-10T21:03:07.361Z,64.10
2019-04-10T21:05:35.936Z,64.00
2019-04-10T21:08:04.874Z,64.10
2019-04-10T21:10:33.407Z,64.00
2019-04-10T21:13:01.975Z,64.20
2019-04-10T21:15:30.485Z,64.40
2019-04-10T21:17:59.205Z,64.70
2019-04-10T21:20:28.705Z,65.10
2019-04-10T21:22:57.701Z,65.30
2019-04-10T21:25:27.347Z,65.50
2019-04-10T21:27:56.663Z,65.30
2019-04-10T21:30:33.985Z,65.80
2019-04-10T21:33:22.628Z,65.50
2019-04-10T21:35:51.923Z,65.90
2019-04-10T21:38:21.438Z,65.80
2019-04-10T21:40:50.314Z,66.00
2019-04-10T21:43:20.265Z,66.00
2019-04-10T21:45:49.685Z,66.10
2019-04-10T21:48:18.858Z,66.30
2019-04-10T21:50:47.466Z,66.30
2019-04-10T21:53:16.469Z,66.50
2019-04-10T21:55:45.854Z,67.00
2019-04-10T21:58:14.557Z,66.90
2019-04-10T22:00:57.074Z,66.90
2019-04-10T22:03:27.451Z,67.00
2019-04-10T22:05:57.775Z,67.20
2019-04-10T22:08:27.942Z,67.10
2019-04-10T22:10:57.307Z,67.10
2019-04-10T22:13:26.291Z,67.60
2019-04-10T22:15:55.432Z,67.70
2019-04-10T22:18:25.223Z,68.30
2019-04-10T22:20:54.170Z,68.80
2019-04-10T22:23:22.899Z,68.50
2019-04-10T22:25:52.237Z,68.50
2019-04-10T22:28:21.163Z,69.00
2019-04-10T22:30:50.557Z,68.80
2019-04-10T22:33:20.172Z,68.90
2019-04-10T22:35:48.751Z,69.00
2019-04-10T22:38:17.418Z,68.60
2019-04-10T22:40:46.297Z,69.50
2019-04-10T22:43:15.889Z,69.60
2019-04-10T22:45:46.630Z,69.70
2019-04-10T22:48:15.350Z,69.50
2019-04-10T22:50:44.971Z,69.60
2019-04-10T22:53:13.505Z,69.60
2019-04-10T22:55:42.910Z,69.80
2019-04-10T22:58:11.392Z,70.00
2019-04-10T23:00:39.950Z,70.80
2019-04-10T23:03:08.523Z,71.00
2019-04-10T23:05:37.117Z,71.00
2019-04-10T23:08:05.701Z,71.30
2019-04-10T23:10:35.257Z,72.10
2019-04-10T23:13:05.534Z,72.60
2019-04-10T23:15:34.185Z,72.20
2019-04-10T23:18:03.357Z,72.20
2019-04-10T23:20:32.067Z,72.20
2019-04-10T23:23:01.026Z,72.50
2019-04-10T23:25:29.678Z,72.80
2019-04-10T23:27:58.901Z,73.30
2019-04-10T23:30:28.439Z,73.30
2019-04-10T23:32:57.270Z,73.40
2019-04-10T23:35:25.791Z,73.80
2019-04-10T23:37:55.216Z,74.50
2019-04-10T23:40:23.759Z,74.30
2019-04-10T23:43:03.823Z,74.50
2019-04-10T23:45:22.430Z,75.00
2019-04-10T23:47:50.870Z,75.20
2019-04-10T23:50:19.491Z,75.10
2019-04-10T23:52:48.014Z,76.00
2019-04-10T23:55:17.667Z,76.90
2019-04-10T23:57:46.493Z,76.10
